createdAt,value
2018-09-29T00:00:05.542Z,67.24
2018-09-29T00:02:34.338Z,67.05
2018-09-29T00:05:03.159Z,67.17
2018-09-29T00:07:32.051Z,67.37
2018-09-29T00:10:00.860Z,66.73
2018-09-29T00:12:29.693Z,67.09
2018-09-29T00:14:58.625Z,66.18
2018-09-29T00:17:27.410Z,65.75
2018-09-29T00:19:56.250Z,65.76
2018-09-29T00:22:25.053Z,65.81
2018-09-29T00:24:53.861Z,65.45
2018-09-29T00:27:22.682Z,65.97
2018-09-29T00:29:51.485Z,65.71
2018-09-29T00:32:20.278Z,66.13
2018-09-29T00:34:49.195Z,66.53
2018-09-29T00:37:18.018Z,66.74
2018-09-29T00:39:46.810Z,67.10
2018-09-29T00:42:15.597Z,67.10
2018-09-29T00:44:44.531Z,67.13
2018-09-29T00:47:13.350Z,67.45
2018-09-29T00:49:42.165Z,67.31
2018-09-29T00:52:11.134Z,67.96
2018-09-29T00:54:39.949Z,67.72
2018-09-29T00:57:08.870Z,68.20
2018-09-29T00:59:37.681Z,67.38
2018-09-29T01:02:06.554Z,67.77
2018-09-29T01:04:35.410Z,67.58
2018-09-29T01:07:04.213Z,67.23
2018-09-29T01:09:33.013Z,67.18
2018-09-29T01:12:01.841Z,66.17
2018-09-29T01:14:30.657Z,66.87
2018-09-29T01:16:59.513Z,66.55
2018-09-29T01:19:28.321Z,66.37
2018-09-29T01:21:57.110Z,65.96
2018-09-29T01:24:25.941Z,65.13
2018-09-29T01:26:54.737Z,65.72
2018-09-29T01:29:23.563Z,65.78
2018-09-29T01:31:52.518Z,66.00
2018-09-29T01:34:21.353Z,66.42
2018-09-29T01:36:50.196Z,66.24
2018-09-29T01:39:18.983Z,66.11
2018-09-29T01:41:47.761Z,65.97
2018-09-29T01:44:16.577Z,66.30
2018-09-29T01:46:45.357Z,66.46
2018-09-29T01:49:14.181Z,66.46
2018-09-29T01:51:42.962Z,66.50
2018-09-29T01:54:11.801Z,66.85
2018-09-29T01:56:40.599Z,66.47
2018-09-29T01:59:09.389Z,66.54
2018-09-29T02:01:39.614Z,66.10
2018-09-29T02:04:08.430Z,65.38
2018-09-29T02:06:37.270Z,65.05
2018-09-29T02:09:07.119Z,64.53
2018-09-29T02:11:35.927Z,64.64
2018-09-29T02:14:05.031Z,63.95
2018-09-29T02:16:34.069Z,64.91
2018-09-29T02:19:02.877Z,65.21
2018-09-29T02:21:31.673Z,64.78
2018-09-29T02:24:00.506Z,64.50
2018-09-29T02:26:29.294Z,64.73
2018-09-29T02:28:58.145Z,64.73
2018-09-29T02:31:26.946Z,64.39
2018-09-29T02:33:55.734Z,64.38
2018-09-29T02:36:24.553Z,64.70
2018-09-29T02:38:53.421Z,65.42
2018-09-29T02:41:22.229Z,66.49
2018-09-29T02:43:51.048Z,66.46
2018-09-29T02:46:19.928Z,67.29
2018-09-29T02:48:48.713Z,67.61
2018-09-29T02:51:17.654Z,67.72
2018-09-29T02:53:46.440Z,68.63
2018-09-29T02:56:15.966Z,68.38
2018-09-29T02:58:44.814Z,69.09
2018-09-29T03:01:13.667Z,68.91
2018-09-29T03:03:42.486Z,68.59
2018-09-29T03:06:11.378Z,68.90
2018-09-29T03:08:40.202Z,68.60
2018-09-29T03:11:09.011Z,68.64
2018-09-29T03:13:37.854Z,68.02
2018-09-29T03:16:06.706Z,68.76
2018-09-29T03:18:35.585Z,69.12
2018-09-29T03:21:04.645Z,69.16
2018-09-29T03:23:33.446Z,69.26
2018-09-29T03:26:02.317Z,68.59
2018-09-29T03:28:31.122Z,68.80
2018-09-29T03:30:59.922Z,68.12
2018-09-29T03:33:28.777Z,68.22
2018-09-29T03:35:57.884Z,68.51
2018-09-29T03:38:26.673Z,68.24
2018-09-29T03:40:55.514Z,69.12
2018-09-29T03:43:24.294Z,69.51
2018-09-29T03:45:53.083Z,69.51
2018-09-29T03:48:21.945Z,69.78
2018-09-29T03:50:50.730Z,69.78
2018-09-29T03:53:24.969Z,70.19
2018-09-29T03:55:53.788Z,70.58
2018-09-29T03:58:22.573Z,71.26
2018-09-29T04:00:51.446Z,71.38
2018-09-29T04:03:20.239Z,71.22
2018-09-29T04:05:49.049Z,71.29
2018-09-29T04:08:17.898Z,71.39
2018-09-29T04:10:46.700Z,71.13
2018-09-29T04:13:15.498Z,69.89
2018-09-29T04:15:44.390Z,69.02
2018-09-29T04:18:13.263Z,68.04
2018-09-29T04:20:42.055Z,68.58
2018-09-29T04:23:10.831Z,68.34
2018-09-29T04:25:39.674Z,68.93
2018-09-29T04:28:08.506Z,69.62
2018-09-29T04:30:37.304Z,69.52
2018-09-29T04:33:06.153Z,69.12
2018-09-29T04:35:36.314Z,69.12
2018-09-29T04:38:05.142Z,69.03
2018-09-29T04:40:33.937Z,68.06
2018-09-29T04:43:02.900Z,67.62
2018-09-29T04:45:31.728Z,68.52
2018-09-29T04:48:00.546Z,67.55
2018-09-29T04:50:29.418Z,68.54
2018-09-29T04:52:58.231Z,67.81
2018-09-29T04:55:27.069Z,67.21
2018-09-29T04:57:56.021Z,66.86
2018-09-29T05:00:24.835Z,67.13
2018-09-29T05:02:53.648Z,66.97
2018-09-29T05:05:22.487Z,67.61
2018-09-29T05:07:51.298Z,67.65
2018-09-29T05:10:20.098Z,67.69
2018-09-29T05:12:48.996Z,67.01
2018-09-29T05:15:17.950Z,66.54
2018-09-29T05:17:46.791Z,66.37
2018-09-29T05:20:15.606Z,65.68
2018-09-29T05:22:44.443Z,66.14
2018-09-29T05:25:13.253Z,66.05
2018-09-29T05:27:42.065Z,66.00
2018-09-29T05:30:11.885Z,65.29
2018-09-29T05:32:40.722Z,64.33
2018-09-29T05:35:09.562Z,64.45
2018-09-29T05:37:38.445Z,63.67
2018-09-29T05:40:07.253Z,64.21
2018-09-29T05:42:36.064Z,65.13
2018-09-29T05:45:05.035Z,65.70
2018-09-29T05:47:33.866Z,63.74
2018-09-29T05:50:02.694Z,63.12
2018-09-29T05:52:31.560Z,62.57
2018-09-29T05:55:00.381Z,63.48
2018-09-29T05:57:29.340Z,62.60
2018-09-29T05:59:58.213Z,62.92
2018-09-29T06:02:27.075Z,62.14
2018-09-29T06:04:55.917Z,61.52
2018-09-29T06:07:24.874Z,62.15
2018-09-29T06:09:53.682Z,62.23
2018-09-29T06:12:22.499Z,61.00
2018-09-29T06:14:51.448Z,60.53
2018-09-29T06:17:20.315Z,60.22
2018-09-29T06:19:49.130Z,59.76
2018-09-29T06:22:18.231Z,59.62
2018-09-29T06:24:47.102Z,59.26
2018-09-29T06:27:15.949Z,57.76
2018-09-29T06:29:44.784Z,57.16
2018-09-29T06:32:14.500Z,56.78
2018-09-29T06:34:47.860Z,58.38
2018-09-29T06:37:19.438Z,58.20
2018-09-29T06:39:48.318Z,56.83
2018-09-29T06:42:17.234Z,56.67
2018-09-29T06:44:46.162Z,55.64
2018-09-29T06:47:15.039Z,55.34
2018-09-29T06:49:43.898Z,55.69
2018-09-29T06:52:14.030Z,54.37
2018-09-29T06:54:42.876Z,53.60
2018-09-29T06:57:11.691Z,54.94
2018-09-29T06:59:41.988Z,56.44
2018-09-29T07:02:10.823Z,56.83
2018-09-29T07:04:39.840Z,56.25
2018-09-29T07:07:10.265Z,54.77
2018-09-29T07:09:39.181Z,54.57
2018-09-29T07:12:08.112Z,55.21
2018-09-29T07:14:37.034Z,55.07
2018-09-29T07:17:06.818Z,54.10
2018-09-29T07:19:36.429Z,54.70
2018-09-29T07:22:06.773Z,53.95
2018-09-29T07:24:35.685Z,53.42
2018-09-29T07:27:04.585Z,53.41
2018-09-29T07:29:33.570Z,53.02
2018-09-29T07:32:02.457Z,52.66
2018-09-29T07:34:31.379Z,53.57
2018-09-29T07:37:01.729Z,52.68
2018-09-29T07:39:30.624Z,52.16
2018-09-29T07:41:59.576Z,51.26
2018-09-29T07:44:29.745Z,50.15
2018-09-29T07:46:58.645Z,49.86
2018-09-29T07:49:27.528Z,48.56
2018-09-29T07:51:57.672Z,48.58
2018-09-29T07:54:26.556Z,49.15
2018-09-29T07:56:55.452Z,50.16
2018-09-29T07:59:24.672Z,50.72
2018-09-29T08:01:53.567Z,50.12
2018-09-29T08:04:22.509Z,49.85
2018-09-29T08:06:51.556Z,49.96
2018-09-29T08:09:20.446Z,50.21
2018-09-29T08:11:49.395Z,50.90
2018-09-29T08:14:18.285Z,50.56
2018-09-29T08:16:47.242Z,51.43
2018-09-29T08:19:16.198Z,52.17
2018-09-29T08:21:45.326Z,52.22
2018-09-29T08:24:15.567Z,53.02
2018-09-29T08:26:44.416Z,52.64
2018-09-29T08:29:13.227Z,53.61
2018-09-29T08:31:42.069Z,52.73
2018-09-29T08:34:10.915Z,53.16
2018-09-29T08:36:39.818Z,53.64
2018-09-29T08:39:10.978Z,53.42
2018-09-29T08:41:39.915Z,55.13
2018-09-29T08:44:08.739Z,54.51
2018-09-29T08:46:37.641Z,54.19
2018-09-29T08:49:06.476Z,55.63
2018-09-29T08:51:35.315Z,56.55
2018-09-29T08:54:05.559Z,56.63
2018-09-29T08:56:34.452Z,57.15
2018-09-29T08:59:03.643Z,57.88
2018-09-29T09:01:32.523Z,57.89
2018-09-29T09:04:01.635Z,59.76
2018-09-29T09:06:30.459Z,60.13
2018-09-29T09:08:59.314Z,60.39
2018-09-29T09:11:28.220Z,60.22
2018-09-29T09:13:57.227Z,61.38
2018-09-29T09:16:27.232Z,61.88
2018-09-29T09:18:56.099Z,61.06
2018-09-29T09:21:24.919Z,60.43
2018-09-29T09:23:53.770Z,60.91
2018-09-29T09:26:22.666Z,60.31
2018-09-29T09:28:51.762Z,60.71
2018-09-29T09:31:21.851Z,60.55
2018-09-29T09:33:50.849Z,59.48
2018-09-29T09:36:19.823Z,60.77
2018-09-29T09:38:48.660Z,59.74
2018-09-29T09:41:17.524Z,60.20
2018-09-29T09:43:46.331Z,60.68
2018-09-29T09:46:15.206Z,61.04
2018-09-29T09:48:44.043Z,62.09
2018-09-29T09:51:13.059Z,63.27
2018-09-29T09:53:41.989Z,64.29
2018-09-29T09:56:10.940Z,64.36
2018-09-29T09:58:39.861Z,63.72
2018-09-29T10:01:14.035Z,63.38
2018-09-29T10:03:42.930Z,63.53
2018-09-29T10:06:11.803Z,62.89
2018-09-29T10:08:40.610Z,62.88
2018-09-29T10:11:09.563Z,63.47
2018-09-29T10:13:38.420Z,63.07
2018-09-29T10:16:07.681Z,63.11
2018-09-29T10:18:36.564Z,64.14
2018-09-29T10:21:05.415Z,64.12
2018-09-29T10:23:34.395Z,64.19
2018-09-29T10:26:04.442Z,65.18
2018-09-29T10:28:33.253Z,67.25
2018-09-29T10:31:02.078Z,65.87
2018-09-29T10:33:30.976Z,66.54
2018-09-29T10:38:33.769Z,65.57
2018-09-29T10:41:02.579Z,69.68
2018-09-29T10:43:31.386Z,70.08
2018-09-29T10:46:00.222Z,70.48
2018-09-29T10:48:29.060Z,69.99
2018-09-29T10:50:57.865Z,68.72
2018-09-29T10:53:28.190Z,68.58
2018-09-29T10:55:56.998Z,67.97
2018-09-29T10:58:25.865Z,67.55
2018-09-29T11:00:54.731Z,66.78
2018-09-29T11:03:23.551Z,67.77
2018-09-29T11:05:52.404Z,67.51
2018-09-29T11:08:21.311Z,67.04
2018-09-29T11:10:51.394Z,67.39
2018-09-29T11:13:20.218Z,68.93
2018-09-29T11:15:50.474Z,68.93
2018-09-29T11:18:20.568Z,68.91
2018-09-29T11:20:49.430Z,69.79
2018-09-29T11:23:18.266Z,70.15
2018-09-29T11:25:48.363Z,70.73
2018-09-29T11:28:17.218Z,70.71
2018-09-29T11:30:47.541Z,70.76
2018-09-29T11:33:16.362Z,70.28
2018-09-29T11:35:45.300Z,71.14
2018-09-29T11:38:14.138Z,71.60
2018-09-29T11:40:43.161Z,73.17
2018-09-29T11:43:12.159Z,71.42
2018-09-29T11:45:41.084Z,71.49
2018-09-29T11:48:09.911Z,73.15
2018-09-29T11:50:40.142Z,73.71
2018-09-29T11:53:09.006Z,74.27
2018-09-29T11:55:38.462Z,73.48
2018-09-29T11:58:07.302Z,72.70
2018-09-29T12:00:36.184Z,72.51
2018-09-29T12:03:05.048Z,73.24
2018-09-29T12:05:33.891Z,73.51
2018-09-29T12:08:02.770Z,73.18
2018-09-29T12:10:32.882Z,74.65
2018-09-29T12:13:04.238Z,73.67
2018-09-29T12:15:33.067Z,74.84
2018-09-29T12:18:03.428Z,74.77
2018-09-29T12:20:32.271Z,74.28
2018-09-29T12:23:01.110Z,75.99
2018-09-29T12:25:31.278Z,76.95
2018-09-29T12:28:00.100Z,76.23
2018-09-29T12:30:28.953Z,75.77
2018-09-29T12:32:59.099Z,75.46
2018-09-29T12:35:27.922Z,75.53
2018-09-29T12:37:58.091Z,76.34
2018-09-29T12:40:26.973Z,76.17
2018-09-29T12:42:57.226Z,75.78
2018-09-29T12:45:27.345Z,76.75
2018-09-29T12:47:56.186Z,76.36
2018-09-29T12:50:25.344Z,79.39
2018-09-29T12:52:54.442Z,78.85
2018-09-29T12:55:23.280Z,78.60
2018-09-29T12:57:53.387Z,79.53
2018-09-29T13:00:22.451Z,79.98
2018-09-29T13:02:51.311Z,80.32
2018-09-29T13:05:20.264Z,79.25
2018-09-29T13:07:49.063Z,78.96
2018-09-29T13:10:17.909Z,79.73
2018-09-29T13:12:46.755Z,82.29
2018-09-29T13:15:15.619Z,83.90
2018-09-29T13:17:44.494Z,85.17
2018-09-29T13:20:13.344Z,86.15
2018-09-29T13:22:42.180Z,86.93
2018-09-29T13:25:11.065Z,87.58
2018-09-29T13:27:40.080Z,86.67
2018-09-29T13:30:08.992Z,86.88
2018-09-29T13:32:38.033Z,85.50
2018-09-29T13:35:07.187Z,85.04
2018-09-29T13:37:36.015Z,85.34
2018-09-29T13:40:04.925Z,84.84
2018-09-29T13:42:33.806Z,86.39
2018-09-29T13:45:02.664Z,86.84
2018-09-29T13:47:31.511Z,87.37
2018-09-29T13:50:00.435Z,87.27
2018-09-29T13:52:29.318Z,87.81
2018-09-29T13:54:58.173Z,86.56
2018-09-29T13:57:27.048Z,85.79
2018-09-29T13:59:56.042Z,85.67
2018-09-29T14:02:25.086Z,85.68
2018-09-29T14:04:53.963Z,85.88
2018-09-29T14:07:22.787Z,87.44
2018-09-29T14:09:51.630Z,86.54
2018-09-29T14:12:20.558Z,87.54
2018-09-29T14:14:49.390Z,87.73
2018-09-29T14:17:18.260Z,87.58
2018-09-29T14:19:47.226Z,88.06
2018-09-29T14:22:16.095Z,87.67
2018-09-29T14:24:45.047Z,87.91
2018-09-29T14:27:13.875Z,87.81
2018-09-29T14:29:42.678Z,87.76
2018-09-29T14:32:11.536Z,88.12
2018-09-29T14:34:40.415Z,87.53
2018-09-29T14:37:10.582Z,86.15
2018-09-29T14:39:39.419Z,86.01
2018-09-29T14:42:08.294Z,85.21
2018-09-29T14:44:37.123Z,84.73
2018-09-29T14:47:06.112Z,84.78
2018-09-29T14:49:35.183Z,85.32
2018-09-29T14:52:04.127Z,84.08
2018-09-29T14:54:33.002Z,84.43
2018-09-29T14:57:02.093Z,85.07
2018-09-29T14:59:30.987Z,84.79
2018-09-29T15:02:02.481Z,84.83
2018-09-29T15:04:31.331Z,85.06
2018-09-29T15:07:00.175Z,84.92
2018-09-29T15:09:29.076Z,85.62
2018-09-29T15:11:57.922Z,85.81
2018-09-29T15:14:26.819Z,85.12
2018-09-29T15:16:57.062Z,85.72
2018-09-29T15:19:25.964Z,85.52
2018-09-29T15:21:54.911Z,85.86
2018-09-29T15:24:23.754Z,87.17
2018-09-29T15:26:52.580Z,86.43
2018-09-29T15:29:21.462Z,86.74
2018-09-29T15:31:50.348Z,86.57
2018-09-29T15:34:19.197Z,85.78
2018-09-29T15:36:48.079Z,85.06
2018-09-29T15:39:16.956Z,85.91
2018-09-29T15:41:45.796Z,85.74
2018-09-29T15:44:14.745Z,85.72
2018-09-29T15:46:43.661Z,85.12
2018-09-29T15:49:12.497Z,84.32
2018-09-29T15:51:41.385Z,83.08
2018-09-29T15:54:11.278Z,85.15
2018-09-29T15:56:40.267Z,84.36
2018-09-29T15:59:09.155Z,85.22
2018-09-29T16:01:38.069Z,85.60
2018-09-29T16:04:09.924Z,85.10
2018-09-29T16:06:38.839Z,86.43
2018-09-29T16:09:10.992Z,86.81
2018-09-29T16:11:40.663Z,86.96
2018-09-29T16:14:09.577Z,87.29
2018-09-29T16:16:38.483Z,86.36
2018-09-29T16:19:07.385Z,85.80
2018-09-29T16:21:36.283Z,85.07
2018-09-29T16:24:05.207Z,86.15
2018-09-29T16:26:34.431Z,85.78
2018-09-29T16:29:03.424Z,85.81
2018-09-29T16:31:32.291Z,85.98
2018-09-29T16:34:02.599Z,86.89
2018-09-29T16:36:31.487Z,87.70
2018-09-29T16:39:00.318Z,87.77
2018-09-29T16:41:30.606Z,87.43
2018-09-29T16:43:59.492Z,87.92
2018-09-29T16:46:28.361Z,88.65
2018-09-29T16:48:57.243Z,88.69
2018-09-29T16:51:26.075Z,88.16
2018-09-29T16:53:54.972Z,87.98
2018-09-29T16:56:23.913Z,88.24
2018-09-29T16:58:52.833Z,88.30
2018-09-29T17:01:21.707Z,87.97
2018-09-29T17:03:50.741Z,87.80
2018-09-29T17:06:19.757Z,87.86
2018-09-29T17:08:48.869Z,87.38
2018-09-29T17:11:17.762Z,87.19
2018-09-29T17:13:46.667Z,87.59
2018-09-29T17:16:15.695Z,87.64
2018-09-29T17:18:44.671Z,87.83
2018-09-29T17:21:13.556Z,87.41
2018-09-29T17:23:42.529Z,87.34
2018-09-29T17:26:11.419Z,87.40
2018-09-29T17:28:40.395Z,87.53
2018-09-29T17:31:09.291Z,87.04
2018-09-29T17:33:38.673Z,87.46
2018-09-29T17:36:08.278Z,87.52
2018-09-29T17:38:37.284Z,87.44
2018-09-29T17:41:06.510Z,87.66
2018-09-29T17:43:35.359Z,87.15
2018-09-29T17:46:04.290Z,87.07
2018-09-29T17:48:33.212Z,87.57
2018-09-29T17:51:02.080Z,88.24
2018-09-29T17:53:31.046Z,89.71
2018-09-29T17:55:59.983Z,90.55
2018-09-29T17:58:29.446Z,91.04
2018-09-29T18:00:58.500Z,91.66
2018-09-29T18:03:27.482Z,92.48
2018-09-29T18:05:56.969Z,92.37
2018-09-29T18:08:26.676Z,92.52
2018-09-29T18:10:56.470Z,92.59
2018-09-29T18:13:25.483Z,91.97
2018-09-29T18:15:54.457Z,91.46
2018-09-29T18:18:24.132Z,89.80
2018-09-29T18:20:53.020Z,90.80
2018-09-29T18:23:22.505Z,89.64
2018-09-29T18:25:52.895Z,90.19
2018-09-29T18:28:22.277Z,89.87
2018-09-29T18:30:51.176Z,90.25
2018-09-29T18:33:21.321Z,90.31
2018-09-29T18:35:50.325Z,89.65
2018-09-29T18:38:19.322Z,89.88
2018-09-29T18:40:48.599Z,89.79
2018-09-29T18:43:18.752Z,89.37
2018-09-29T18:45:47.680Z,88.94
2018-09-29T18:48:17.768Z,88.38
2018-09-29T18:50:49.387Z,89.53
2018-09-29T18:53:19.822Z,89.26
2018-09-29T18:55:48.899Z,89.25
2018-09-29T18:58:19.564Z,89.62
2018-09-29T19:00:48.645Z,88.87
2018-09-29T19:03:18.805Z,88.99
2018-09-29T19:05:47.754Z,89.39
2018-09-29T19:08:16.818Z,89.58
2018-09-29T19:10:45.716Z,90.31
2018-09-29T19:13:14.634Z,85.46
2018-09-29T19:15:43.678Z,86.52
2018-09-29T19:18:12.636Z,86.22
2018-09-29T19:20:41.696Z,87.13
2018-09-29T19:23:10.565Z,87.29
2018-09-29T19:25:39.458Z,87.27
2018-09-29T19:28:08.350Z,87.24
2018-09-29T19:30:38.777Z,87.19
2018-09-29T19:33:07.662Z,86.89
2018-09-29T19:35:36.614Z,86.85
2018-09-29T19:38:05.551Z,86.43
2018-09-29T19:40:34.383Z,87.43
2018-09-29T19:43:03.271Z,87.60
2018-09-29T19:45:33.204Z,87.78
2018-09-29T19:48:02.451Z,87.12
2018-09-29T19:50:33.023Z,87.21
2018-09-29T19:53:01.887Z,87.33
2018-09-29T19:55:30.781Z,87.39
2018-09-29T19:58:01.161Z,88.32
2018-09-29T20:00:30.085Z,88.27
2018-09-29T20:02:58.909Z,88.25
2018-09-29T20:05:29.062Z,86.79
2018-09-29T20:07:57.968Z,85.94
2018-09-29T20:10:26.807Z,87.02
2018-09-29T20:12:55.731Z,86.47
2018-09-29T20:15:24.819Z,85.83
2018-09-29T20:17:53.674Z,86.16
2018-09-29T20:20:24.190Z,86.39
2018-09-29T20:22:53.016Z,86.96
2018-09-29T20:25:21.919Z,87.05
2018-09-29T20:27:52.332Z,87.25
2018-09-29T20:30:21.231Z,87.65
2018-09-29T20:32:50.036Z,88.26
2018-09-29T20:35:20.224Z,88.22
2018-09-29T20:37:49.047Z,88.40
2018-09-29T20:40:17.884Z,88.72
2018-09-29T20:42:46.875Z,88.42
2018-09-29T20:45:15.709Z,88.30
2018-09-29T20:47:44.624Z,87.16
2018-09-29T20:50:15.055Z,87.62
2018-09-29T20:52:43.975Z,87.49
2018-09-29T20:55:12.804Z,87.33
2018-09-29T20:57:41.670Z,87.68
2018-09-29T21:00:10.525Z,87.23
2018-09-29T21:02:39.416Z,87.35
2018-09-29T21:05:08.282Z,86.76
2018-09-29T21:07:38.361Z,86.66
2018-09-29T21:10:07.248Z,86.45
2018-09-29T21:12:36.177Z,86.40
2018-09-29T21:15:05.291Z,86.59
2018-09-29T21:17:34.143Z,85.80
2018-09-29T21:20:03.012Z,86.17
2018-09-29T21:22:31.836Z,84.82
2018-09-29T21:25:00.738Z,85.11
2018-09-29T21:27:31.037Z,85.82
2018-09-29T21:29:59.960Z,86.33
2018-09-29T21:32:28.797Z,86.18
2018-09-29T21:34:57.653Z,86.77
2018-09-29T21:37:26.496Z,85.95
2018-09-29T21:39:55.383Z,85.53
2018-09-29T21:42:24.279Z,85.28
2018-09-29T21:44:54.538Z,85.49
2018-09-29T21:47:23.474Z,85.07
2018-09-29T21:49:52.433Z,85.13
2018-09-29T21:52:21.438Z,84.97
2018-09-29T21:54:50.391Z,84.92
2018-09-29T21:57:19.305Z,85.28
2018-09-29T21:59:48.253Z,83.66
2018-09-29T22:02:17.099Z,84.95
2018-09-29T22:04:45.912Z,84.24
2018-09-29T22:07:14.765Z,83.49
2018-09-29T22:09:43.591Z,83.92
2018-09-29T22:12:12.439Z,84.08
2018-09-29T22:14:41.315Z,83.65
2018-09-29T22:17:10.145Z,83.78
2018-09-29T22:19:39.002Z,84.27
2018-09-29T22:22:07.869Z,83.62
2018-09-29T22:24:36.698Z,83.14
2018-09-29T22:27:05.600Z,83.64
2018-09-29T22:29:34.420Z,84.20
2018-09-29T22:32:03.248Z,84.63
2018-09-29T22:34:32.116Z,83.54
2018-09-29T22:37:00.931Z,84.67
2018-09-29T22:39:29.742Z,84.04
2018-09-29T22:41:58.597Z,84.50
2018-09-29T22:44:27.412Z,85.17
2018-09-29T22:46:56.228Z,85.05
2018-09-29T22:49:25.082Z,84.43
2018-09-29T22:51:53.894Z,85.24
2018-09-29T22:54:22.698Z,85.76
2018-09-29T22:56:51.594Z,84.98
2018-09-29T22:59:20.396Z,85.54
2018-09-29T23:01:49.214Z,86.84
2018-09-29T23:04:18.077Z,85.64
2018-09-29T23:06:46.911Z,86.71
2018-09-29T23:09:16.087Z,86.56
2018-09-29T23:11:44.951Z,86.66
2018-09-29T23:14:13.761Z,87.08
2018-09-29T23:16:42.547Z,86.69
2018-09-29T23:19:11.446Z,87.24
2018-09-29T23:21:40.351Z,87.54
2018-09-29T23:24:09.173Z,86.74
2018-09-29T23:26:39.353Z,87.56
2018-09-29T23:29:08.160Z,86.92
2018-09-29T23:31:37.006Z,87.64
2018-09-29T23:34:05.878Z,87.60
2018-09-29T23:36:34.765Z,87.89
2018-09-29T23:39:03.770Z,87.76
2018-09-29T23:41:32.569Z,87.60
2018-09-29T23:44:01.372Z,86.48
2018-09-29T23:46:30.201Z,87.71
2018-09-29T23:48:59.006Z,87.35
2018-09-29T23:51:27.801Z,85.95
2018-09-29T23:53:56.639Z,87.41
2018-09-29T23:56:25.446Z,86.72
2018-09-29T23:58:54.249Z,86.69
